Cucuta, Venezuela
Current Conditions -  °F | °C
As of 12:00 PM on Wednesday 22 Oct 2014 (Local Time) from SKCC Reporting Station
Scattered Clouds Scattered Clouds  
Wind Chill: 90°   Ceiling: Unl
Heat Index: 95°   Visibility: 6mi
Dew Point: 70°   Wind: 9mph
Humidity: 52%   Direction: 360°N
Pressure: 29.94"   Gusts: NA
Location:  7.9°N, 72.49°W
Report Text: SKCC 221600Z 36008KT 9999 SCT023 32/21 A2994
Loading
Personal Weather Stations






























Interactive Weather Map
Tropical Storm Tracking
New forecast layout! Learn more

10-Day Weather Forecast

Advertisements
Track Severe Weather on mobile